sensor_id;sensor_type;location;lat;lon;timestamp;P1;durP1;ratioP1;P2;durP2;ratioP2
4601;SDS011;2313;48.552;9.370;2023-04-06T00:00:50;10.53;;;6.60;;
4601;SDS011;2313;48.552;9.370;2023-04-06T00:03:16;7.65;;;5.65;;
4601;SDS011;2313;48.552;9.370;2023-04-06T00:05:42;7.05;;;5.85;;
4601;SDS011;2313;48.552;9.370;2023-04-06T00:08:08;6.70;;;5.57;;
4601;SDS011;2313;48.552;9.370;2023-04-06T00:10:34;8.80;;;6.17;;
4601;SDS011;2313;48.552;9.370;2023-04-06T00:12:59;7.43;;;5.20;;
4601;SDS011;2313;48.552;9.370;2023-04-06T00:15:25;9.60;;;6.30;;
4601;SDS011;2313;48.552;9.370;2023-04-06T00:17:51;6.38;;;5.20;;
4601;SDS011;2313;48.552;9.370;2023-04-06T00:20:18;8.30;;;5.93;;
4601;SDS011;2313;48.552;9.370;2023-04-06T00:22:44;12.83;;;6.43;;
4601;SDS011;2313;48.552;9.370;2023-04-06T00:25:10;7.60;;;6.18;;
4601;SDS011;2313;48.552;9.370;2023-04-06T00:27:36;9.85;;;7.00;;
4601;SDS011;2313;48.552;9.370;2023-04-06T00:30:03;9.50;;;6.77;;
4601;SDS011;2313;48.552;9.370;2023-04-06T00:32:30;8.77;;;7.47;;
4601;SDS011;2313;48.552;9.370;2023-04-06T00:34:56;10.10;;;7.30;;
4601;SDS011;2313;48.552;9.370;2023-04-06T00:37:21;9.43;;;7.60;;
4601;SDS011;2313;48.552;9.370;2023-04-06T00:39:47;12.63;;;7.57;;
4601;SDS011;2313;48.552;9.370;2023-04-06T00:42:13;9.53;;;5.87;;
4601;SDS011;2313;48.552;9.370;2023-04-06T00:44:42;7.40;;;6.20;;
4601;SDS011;2313;48.552;9.370;2023-04-06T00:47:08;8.68;;;5.75;;
4601;SDS011;2313;48.552;9.370;2023-04-06T00:49:34;10.65;;;5.55;;
4601;SDS011;2313;48.552;9.370;2023-04-06T00:52:00;12.27;;;6.73;;
4601;SDS011;2313;48.552;9.370;2023-04-06T00:54:27;8.37;;;5.80;;
4601;SDS011;2313;48.552;9.370;2023-04-06T00:56:53;13.32;;;6.22;;
4601;SDS011;2313;48.552;9.370;2023-04-06T00:59:20;10.05;;;6.38;;
4601;SDS011;2313;48.552;9.370;2023-04-06T01:01:45;7.77;;;5.87;;
4601;SDS011;2313;48.552;9.370;2023-04-06T01:04:11;8.47;;;6.03;;
4601;SDS011;2313;48.552;9.370;2023-04-06T01:06:37;6.13;;;5.50;;
4601;SDS011;2313;48.552;9.370;2023-04-06T01:09:03;7.73;;;5.73;;
4601;SDS011;2313;48.552;9.370;2023-04-06T01:11:28;10.37;;;6.00;;
4601;SDS011;2313;48.552;9.370;2023-04-06T01:13:55;10.55;;;5.70;;
4601;SDS011;2313;48.552;9.370;2023-04-06T01:16:20;7.60;;;5.73;;
4601;SDS011;2313;48.552;9.370;2023-04-06T01:18:46;8.33;;;6.00;;
4601;SDS011;2313;48.552;9.370;2023-04-06T01:21:12;11.10;;;6.03;;
4601;SDS011;2313;48.552;9.370;2023-04-06T01:23:46;9.90;;;5.80;;
4601;SDS011;2313;48.552;9.370;2023-04-06T01:26:12;8.30;;;5.80;;
4601;SDS011;2313;48.552;9.370;2023-04-06T01:28:38;8.02;;;5.88;;
4601;SDS011;2313;48.552;9.370;2023-04-06T01:31:08;16.07;;;9.20;;
4601;SDS011;2313;48.552;9.370;2023-04-06T01:33:34;8.43;;;6.27;;
4601;SDS011;2313;48.552;9.370;2023-04-06T01:36:00;8.57;;;5.82;;
4601;SDS011;2313;48.552;9.370;2023-04-06T01:38:26;13.77;;;6.45;;
4601;SDS011;2313;48.552;9.370;2023-04-06T01:40:55;9.17;;;6.60;;
4601;SDS011;2313;48.552;9.370;2023-04-06T01:43:21;12.20;;;6.13;;
4601;SDS011;2313;48.552;9.370;2023-04-06T01:45:47;11.70;;;5.70;;
4601;SDS011;2313;48.552;9.370;2023-04-06T01:48:13;8.00;;;6.30;;
4601;SDS011;2313;48.552;9.370;2023-04-06T01:50:39;9.90;;;6.37;;
4601;SDS011;2313;48.552;9.370;2023-04-06T01:53:04;12.10;;;8.47;;
4601;SDS011;2313;48.552;9.370;2023-04-06T01:55:30;10.17;;;7.90;;
4601;SDS011;2313;48.552;9.370;2023-04-06T01:57:55;13.23;;;8.20;;
4601;SDS011;2313;48.552;9.370;2023-04-06T02:00:21;16.10;;;9.23;;
4601;SDS011;2313;48.552;9.370;2023-04-06T02:02:47;13.33;;;8.63;;
4601;SDS011;2313;48.552;9.370;2023-04-06T02:05:12;14.80;;;9.00;;
4601;SDS011;2313;48.552;9.370;2023-04-06T02:07:38;13.70;;;8.20;;
4601;SDS011;2313;48.552;9.370;2023-04-06T02:10:04;13.07;;;9.27;;
4601;SDS011;2313;48.552;9.370;2023-04-06T02:12:37;11.23;;;8.48;;
4601;SDS011;2313;48.552;9.370;2023-04-06T02:15:02;14.70;;;9.67;;
4601;SDS011;2313;48.552;9.370;2023-04-06T02:17:29;12.70;;;8.73;;
4601;SDS011;2313;48.552;9.370;2023-04-06T02:19:54;11.93;;;8.67;;
4601;SDS011;2313;48.552;9.370;2023-04-06T02:22:20;13.93;;;8.70;;
4601;SDS011;2313;48.552;9.370;2023-04-06T02:24:45;11.83;;;8.70;;
4601;SDS011;2313;48.552;9.370;2023-04-06T02:27:11;13.77;;;9.37;;
4601;SDS011;2313;48.552;9.370;2023-04-06T02:29:38;12.40;;;8.77;;
4601;SDS011;2313;48.552;9.370;2023-04-06T02:32:04;14.87;;;9.43;;
4601;SDS011;2313;48.552;9.370;2023-04-06T02:34:30;12.47;;;9.00;;
4601;SDS011;2313;48.552;9.370;2023-04-06T02:36:56;12.97;;;8.87;;
4601;SDS011;2313;48.552;9.370;2023-04-06T02:39:21;12.53;;;9.13;;
4601;SDS011;2313;48.552;9.370;2023-04-06T02:41:47;14.33;;;8.87;;
4601;SDS011;2313;48.552;9.370;2023-04-06T02:44:13;12.23;;;8.47;;
4601;SDS011;2313;48.552;9.370;2023-04-06T02:46:39;12.77;;;9.53;;
4601;SDS011;2313;48.552;9.370;2023-04-06T02:49:05;14.33;;;8.87;;
4601;SDS011;2313;48.552;9.370;2023-04-06T02:51:30;12.20;;;9.33;;
4601;SDS011;2313;48.552;9.370;2023-04-06T02:53:56;14.13;;;8.70;;
4601;SDS011;2313;48.552;9.370;2023-04-06T02:56:22;12.60;;;7.90;;
4601;SDS011;2313;48.552;9.370;2023-04-06T02:58:47;10.00;;;8.10;;
4601;SDS011;2313;48.552;9.370;2023-04-06T03:01:13;12.90;;;9.37;;
4601;SDS011;2313;48.552;9.370;2023-04-06T03:03:39;12.70;;;8.95;;
4601;SDS011;2313;48.552;9.370;2023-04-06T03:06:05;14.07;;;9.70;;
4601;SDS011;2313;48.552;9.370;2023-04-06T03:08:31;18.50;;;9.10;;
4601;SDS011;2313;48.552;9.370;2023-04-06T03:10:57;11.20;;;8.60;;
4601;SDS011;2313;48.552;9.370;2023-04-06T03:13:22;13.70;;;9.60;;
4601;SDS011;2313;48.552;9.370;2023-04-06T03:15:48;11.13;;;8.23;;
4601;SDS011;2313;48.552;9.370;2023-04-06T03:18:13;12.93;;;8.83;;
4601;SDS011;2313;48.552;9.370;2023-04-06T03:20:39;13.93;;;8.50;;
4601;SDS011;2313;48.552;9.370;2023-04-06T03:23:05;12.97;;;9.77;;
4601;SDS011;2313;48.552;9.370;2023-04-06T03:25:31;11.67;;;8.53;;
4601;SDS011;2313;48.552;9.370;2023-04-06T03:27:56;13.97;;;9.63;;
4601;SDS011;2313;48.552;9.370;2023-04-06T03:30:22;13.00;;;9.57;;
4601;SDS011;2313;48.552;9.370;2023-04-06T03:32:48;13.30;;;8.73;;
4601;SDS011;2313;48.552;9.370;2023-04-06T03:35:13;12.93;;;8.13;;
4601;SDS011;2313;48.552;9.370;2023-04-06T03:37:39;11.90;;;8.27;;
4601;SDS011;2313;48.552;9.370;2023-04-06T03:40:06;12.33;;;8.37;;
4601;SDS011;2313;48.552;9.370;2023-04-06T03:42:32;12.93;;;8.98;;
4601;SDS011;2313;48.552;9.370;2023-04-06T03:44:58;13.50;;;10.27;;
4601;SDS011;2313;48.552;9.370;2023-04-06T03:47:23;16.15;;;9.98;;
4601;SDS011;2313;48.552;9.370;2023-04-06T03:49:49;15.80;;;9.70;;
4601;SDS011;2313;48.552;9.370;2023-04-06T03:52:15;11.20;;;8.67;;
4601;SDS011;2313;48.552;9.370;2023-04-06T03:54:41;11.47;;;8.17;;
4601;SDS011;2313;48.552;9.370;2023-04-06T03:57:06;10.47;;;8.30;;
4601;SDS011;2313;48.552;9.370;2023-04-06T03:59:32;10.33;;;8.00;;
4601;SDS011;2313;48.552;9.370;2023-04-06T04:01:58;18.40;;;9.07;;
4601;SDS011;2313;48.552;9.370;2023-04-06T04:04:23;13.13;;;8.37;;
4601;SDS011;2313;48.552;9.370;2023-04-06T04:06:49;12.73;;;9.30;;
4601;SDS011;2313;48.552;9.370;2023-04-06T04:09:15;10.93;;;7.43;;
4601;SDS011;2313;48.552;9.370;2023-04-06T04:11:41;12.43;;;8.27;;
4601;SDS011;2313;48.552;9.370;2023-04-06T04:14:06;8.57;;;6.73;;
4601;SDS011;2313;48.552;9.370;2023-04-06T04:16:32;11.73;;;8.23;;
4601;SDS011;2313;48.552;9.370;2023-04-06T04:18:57;22.77;;;11.40;;
4601;SDS011;2313;48.552;9.370;2023-04-06T04:21:23;13.90;;;9.67;;
4601;SDS011;2313;48.552;9.370;2023-04-06T04:23:50;26.88;;;16.35;;
4601;SDS011;2313;48.552;9.370;2023-04-06T04:26:17;17.42;;;11.20;;
4601;SDS011;2313;48.552;9.370;2023-04-06T04:28:43;17.07;;;9.67;;
4601;SDS011;2313;48.552;9.370;2023-04-06T04:31:08;16.93;;;12.30;;
4601;SDS011;2313;48.552;9.370;2023-04-06T04:33:35;14.65;;;9.52;;
4601;SDS011;2313;48.552;9.370;2023-04-06T04:36:00;14.83;;;9.17;;
4601;SDS011;2313;48.552;9.370;2023-04-06T04:38:26;14.10;;;9.57;;
4601;SDS011;2313;48.552;9.370;2023-04-06T04:40:52;13.80;;;9.23;;
4601;SDS011;2313;48.552;9.370;2023-04-06T04:43:17;14.60;;;9.97;;
4601;SDS011;2313;48.552;9.370;2023-04-06T04:45:43;15.17;;;9.43;;
4601;SDS011;2313;48.552;9.370;2023-04-06T04:48:08;10.63;;;8.10;;
4601;SDS011;2313;48.552;9.370;2023-04-06T04:50:35;10.68;;;9.00;;
4601;SDS011;2313;48.552;9.370;2023-04-06T04:53:00;14.57;;;8.50;;
4601;SDS011;2313;48.552;9.370;2023-04-06T04:55:26;12.80;;;8.40;;
4601;SDS011;2313;48.552;9.370;2023-04-06T04:57:52;12.90;;;8.80;;
4601;SDS011;2313;48.552;9.370;2023-04-06T05:00:18;13.40;;;8.07;;
4601;SDS011;2313;48.552;9.370;2023-04-06T05:02:44;11.43;;;7.45;;
4601;SDS011;2313;48.552;9.370;2023-04-06T05:05:10;8.60;;;6.80;;
4601;SDS011;2313;48.552;9.370;2023-04-06T05:07:36;14.67;;;7.50;;
4601;SDS011;2313;48.552;9.370;2023-04-06T05:10:01;10.07;;;8.00;;
4601;SDS011;2313;48.552;9.370;2023-04-06T05:12:27;11.63;;;8.13;;
4601;SDS011;2313;48.552;9.370;2023-04-06T05:14:53;12.77;;;8.02;;
4601;SDS011;2313;48.552;9.370;2023-04-06T05:17:19;13.60;;;8.00;;
4601;SDS011;2313;48.552;9.370;2023-04-06T05:19:45;17.53;;;9.77;;
4601;SDS011;2313;48.552;9.370;2023-04-06T05:22:11;19.60;;;10.03;;
4601;SDS011;2313;48.552;9.370;2023-04-06T05:24:39;13.05;;;8.05;;
4601;SDS011;2313;48.552;9.370;2023-04-06T05:27:05;12.35;;;8.05;;
4601;SDS011;2313;48.552;9.370;2023-04-06T05:29:31;12.82;;;8.45;;
4601;SDS011;2313;48.552;9.370;2023-04-06T05:31:57;12.37;;;8.87;;
4601;SDS011;2313;48.552;9.370;2023-04-06T05:34:22;12.37;;;8.73;;
4601;SDS011;2313;48.552;9.370;2023-04-06T05:36:48;12.10;;;8.43;;
4601;SDS011;2313;48.552;9.370;2023-04-06T05:39:14;14.67;;;8.70;;
4601;SDS011;2313;48.552;9.370;2023-04-06T05:41:39;11.83;;;8.43;;
4601;SDS011;2313;48.552;9.370;2023-04-06T05:44:05;13.60;;;8.53;;
4601;SDS011;2313;48.552;9.370;2023-04-06T05:46:31;12.03;;;8.67;;
4601;SDS011;2313;48.552;9.370;2023-04-06T05:48:56;12.53;;;9.27;;
4601;SDS011;2313;48.552;9.370;2023-04-06T05:51:22;11.87;;;8.00;;
4601;SDS011;2313;48.552;9.370;2023-04-06T05:53:48;11.87;;;9.03;;
4601;SDS011;2313;48.552;9.370;2023-04-06T05:56:13;14.87;;;8.60;;
4601;SDS011;2313;48.552;9.370;2023-04-06T05:58:39;16.83;;;9.83;;
4601;SDS011;2313;48.552;9.370;2023-04-06T06:01:05;14.97;;;9.53;;
4601;SDS011;2313;48.552;9.370;2023-04-06T06:03:30;17.00;;;10.37;;
4601;SDS011;2313;48.552;9.370;2023-04-06T06:06:02;16.83;;;9.37;;
4601;SDS011;2313;48.552;9.370;2023-04-06T06:08:29;19.23;;;10.10;;
4601;SDS011;2313;48.552;9.370;2023-04-06T06:10:55;14.43;;;9.43;;
4601;SDS011;2313;48.552;9.370;2023-04-06T06:13:21;14.95;;;9.88;;
4601;SDS011;2313;48.552;9.370;2023-04-06T06:15:47;13.07;;;8.98;;
4601;SDS011;2313;48.552;9.370;2023-04-06T06:18:14;16.75;;;9.43;;
4601;SDS011;2313;48.552;9.370;2023-04-06T06:20:39;16.03;;;10.17;;
4601;SDS011;2313;48.552;9.370;2023-04-06T06:23:05;26.57;;;17.13;;
4601;SDS011;2313;48.552;9.370;2023-04-06T06:25:30;18.47;;;10.47;;
4601;SDS011;2313;48.552;9.370;2023-04-06T06:27:57;12.98;;;8.93;;
4601;SDS011;2313;48.552;9.370;2023-04-06T06:30:23;15.00;;;8.95;;
4601;SDS011;2313;48.552;9.370;2023-04-06T06:32:49;13.40;;;8.60;;
4601;SDS011;2313;48.552;9.370;2023-04-06T06:35:15;13.05;;;8.07;;
4601;SDS011;2313;48.552;9.370;2023-04-06T06:37:41;14.00;;;9.20;;
4601;SDS011;2313;48.552;9.370;2023-04-06T06:40:08;20.33;;;9.80;;
4601;SDS011;2313;48.552;9.370;2023-04-06T06:42:35;18.13;;;9.93;;
4601;SDS011;2313;48.552;9.370;2023-04-06T06:45:01;18.40;;;10.70;;
4601;SDS011;2313;48.552;9.370;2023-04-06T06:47:26;20.20;;;10.83;;
4601;SDS011;2313;48.552;9.370;2023-04-06T06:49:52;16.67;;;10.00;;
4601;SDS011;2313;48.552;9.370;2023-04-06T06:52:18;16.27;;;10.80;;
4601;SDS011;2313;48.552;9.370;2023-04-06T06:54:43;17.30;;;10.63;;
4601;SDS011;2313;48.552;9.370;2023-04-06T06:57:09;17.70;;;10.57;;
4601;SDS011;2313;48.552;9.370;2023-04-06T06:59:35;15.37;;;10.43;;
4601;SDS011;2313;48.552;9.370;2023-04-06T07:02:00;16.77;;;9.67;;
4601;SDS011;2313;48.552;9.370;2023-04-06T07:04:26;15.10;;;9.60;;
4601;SDS011;2313;48.552;9.370;2023-04-06T07:06:52;14.20;;;9.37;;
4601;SDS011;2313;48.552;9.370;2023-04-06T07:09:18;13.37;;;9.20;;
4601;SDS011;2313;48.552;9.370;2023-04-06T07:11:44;15.03;;;10.27;;
4601;SDS011;2313;48.552;9.370;2023-04-06T07:14:10;12.30;;;8.83;;
4601;SDS011;2313;48.552;9.370;2023-04-06T07:16:36;11.73;;;9.17;;
4601;SDS011;2313;48.552;9.370;2023-04-06T07:19:02;13.97;;;8.90;;
4601;SDS011;2313;48.552;9.370;2023-04-06T07:21:28;15.83;;;9.73;;
4601;SDS011;2313;48.552;9.370;2023-04-06T07:23:53;14.37;;;10.53;;
4601;SDS011;2313;48.552;9.370;2023-04-06T07:26:19;15.00;;;10.40;;
4601;SDS011;2313;48.552;9.370;2023-04-06T07:28:45;17.50;;;11.30;;
4601;SDS011;2313;48.552;9.370;2023-04-06T07:31:10;11.53;;;10.30;;
4601;SDS011;2313;48.552;9.370;2023-04-06T07:33:36;16.50;;;11.40;;
4601;SDS011;2313;48.552;9.370;2023-04-06T07:36:02;16.30;;;10.17;;
4601;SDS011;2313;48.552;9.370;2023-04-06T07:38:28;16.23;;;9.47;;
4601;SDS011;2313;48.552;9.370;2023-04-06T07:40:53;11.10;;;9.30;;
4601;SDS011;2313;48.552;9.370;2023-04-06T07:43:19;13.70;;;10.40;;
4601;SDS011;2313;48.552;9.370;2023-04-06T07:45:45;13.53;;;9.20;;
4601;SDS011;2313;48.552;9.370;2023-04-06T07:48:10;13.60;;;10.00;;
4601;SDS011;2313;48.552;9.370;2023-04-06T07:50:36;15.47;;;9.47;;
4601;SDS011;2313;48.552;9.370;2023-04-06T07:53:02;13.40;;;9.60;;
4601;SDS011;2313;48.552;9.370;2023-04-06T07:55:27;15.10;;;10.20;;
4601;SDS011;2313;48.552;9.370;2023-04-06T07:57:53;13.77;;;9.50;;
4601;SDS011;2313;48.552;9.370;2023-04-06T08:00:19;12.63;;;9.70;;
4601;SDS011;2313;48.552;9.370;2023-04-06T08:02:45;23.13;;;10.30;;
4601;SDS011;2313;48.552;9.370;2023-04-06T08:05:11;13.47;;;9.20;;
4601;SDS011;2313;48.552;9.370;2023-04-06T08:07:37;13.53;;;10.07;;
4601;SDS011;2313;48.552;9.370;2023-04-06T08:10:03;13.57;;;10.17;;
4601;SDS011;2313;48.552;9.370;2023-04-06T08:12:28;15.80;;;10.43;;
4601;SDS011;2313;48.552;9.370;2023-04-06T08:14:54;12.53;;;9.47;;
4601;SDS011;2313;48.552;9.370;2023-04-06T08:17:21;15.33;;;9.80;;
4601;SDS011;2313;48.552;9.370;2023-04-06T08:19:47;16.30;;;10.57;;
4601;SDS011;2313;48.552;9.370;2023-04-06T08:22:13;14.13;;;10.13;;
4601;SDS011;2313;48.552;9.370;2023-04-06T08:24:38;16.77;;;10.90;;
4601;SDS011;2313;48.552;9.370;2023-04-06T08:27:04;19.47;;;12.40;;
4601;SDS011;2313;48.552;9.370;2023-04-06T08:29:30;12.33;;;10.00;;
4601;SDS011;2313;48.552;9.370;2023-04-06T08:31:55;17.43;;;10.50;;
4601;SDS011;2313;48.552;9.370;2023-04-06T08:34:21;14.57;;;9.83;;
4601;SDS011;2313;48.552;9.370;2023-04-06T08:36:48;14.60;;;10.53;;
4601;SDS011;2313;48.552;9.370;2023-04-06T08:39:13;13.70;;;9.63;;
4601;SDS011;2313;48.552;9.370;2023-04-06T08:41:41;16.53;;;9.60;;
4601;SDS011;2313;48.552;9.370;2023-04-06T08:44:07;14.67;;;10.33;;
4601;SDS011;2313;48.552;9.370;2023-04-06T08:46:33;13.13;;;9.77;;
4601;SDS011;2313;48.552;9.370;2023-04-06T08:49:02;17.10;;;9.93;;
4601;SDS011;2313;48.552;9.370;2023-04-06T08:51:31;14.23;;;9.97;;
4601;SDS011;2313;48.552;9.370;2023-04-06T08:53:58;18.00;;;11.20;;
4601;SDS011;2313;48.552;9.370;2023-04-06T08:56:24;10.93;;;8.77;;
4601;SDS011;2313;48.552;9.370;2023-04-06T08:58:52;18.83;;;11.33;;
4601;SDS011;2313;48.552;9.370;2023-04-06T09:01:38;13.77;;;10.00;;
4601;SDS011;2313;48.552;9.370;2023-04-06T09:04:08;14.70;;;10.30;;
4601;SDS011;2313;48.552;9.370;2023-04-06T09:06:35;14.70;;;10.43;;
4601;SDS011;2313;48.552;9.370;2023-04-06T09:09:02;16.10;;;10.40;;
4601;SDS011;2313;48.552;9.370;2023-04-06T09:11:28;21.47;;;9.83;;
4601;SDS011;2313;48.552;9.370;2023-04-06T09:13:54;14.80;;;9.90;;
4601;SDS011;2313;48.552;9.370;2023-04-06T09:16:21;14.80;;;10.07;;
4601;SDS011;2313;48.552;9.370;2023-04-06T09:18:48;18.93;;;10.30;;
4601;SDS011;2313;48.552;9.370;2023-04-06T09:21:16;19.70;;;11.10;;
4601;SDS011;2313;48.552;9.370;2023-04-06T09:23:43;14.87;;;10.00;;
4601;SDS011;2313;48.552;9.370;2023-04-06T09:26:13;13.23;;;10.10;;
4601;SDS011;2313;48.552;9.370;2023-04-06T09:28:48;14.73;;;10.20;;
4601;SDS011;2313;48.552;9.370;2023-04-06T09:31:15;19.90;;;11.33;;
4601;SDS011;2313;48.552;9.370;2023-04-06T09:33:46;18.37;;;10.50;;
4601;SDS011;2313;48.552;9.370;2023-04-06T09:36:12;17.90;;;12.37;;
4601;SDS011;2313;48.552;9.370;2023-04-06T09:41:32;13.23;;;9.67;;
4601;SDS011;2313;48.552;9.370;2023-04-06T09:44:09;15.43;;;10.50;;
4601;SDS011;2313;48.552;9.370;2023-04-06T09:46:36;15.90;;;9.80;;
4601;SDS011;2313;48.552;9.370;2023-04-06T09:49:10;13.67;;;9.80;;
4601;SDS011;2313;48.552;9.370;2023-04-06T09:51:40;13.17;;;9.57;;
4601;SDS011;2313;48.552;9.370;2023-04-06T09:54:15;15.80;;;10.80;;
4601;SDS011;2313;48.552;9.370;2023-04-06T09:56:46;12.70;;;9.30;;
4601;SDS011;2313;48.552;9.370;2023-04-06T10:08:09;13.13;;;10.20;;
4601;SDS011;2313;48.552;9.370;2023-04-06T10:10:35;15.27;;;10.50;;
4601;SDS011;2313;48.552;9.370;2023-04-06T10:13:02;13.40;;;10.07;;
4601;SDS011;2313;48.552;9.370;2023-04-06T10:15:29;14.70;;;10.30;;
4601;SDS011;2313;48.552;9.370;2023-04-06T10:17:56;15.23;;;9.30;;
4601;SDS011;2313;48.552;9.370;2023-04-06T10:25:51;15.07;;;9.97;;
4601;SDS011;2313;48.552;9.370;2023-04-06T10:28:25;13.33;;;10.40;;
4601;SDS011;2313;48.552;9.370;2023-04-06T10:31:00;13.00;;;9.20;;
4601;SDS011;2313;48.552;9.370;2023-04-06T10:33:29;15.40;;;10.57;;
4601;SDS011;2313;48.552;9.370;2023-04-06T10:35:55;12.03;;;9.47;;
4601;SDS011;2313;48.552;9.370;2023-04-06T10:38:20;13.87;;;9.50;;
4601;SDS011;2313;48.552;9.370;2023-04-06T10:41:03;12.43;;;9.47;;
4601;SDS011;2313;48.552;9.370;2023-04-06T10:43:32;15.50;;;10.50;;
4601;SDS011;2313;48.552;9.370;2023-04-06T10:46:00;13.03;;;9.57;;
4601;SDS011;2313;48.552;9.370;2023-04-06T10:48:39;13.13;;;10.33;;
4601;SDS011;2313;48.552;9.370;2023-04-06T10:51:07;14.23;;;10.13;;
4601;SDS011;2313;48.552;9.370;2023-04-06T10:53:35;13.27;;;9.90;;
4601;SDS011;2313;48.552;9.370;2023-04-06T10:56:00;11.30;;;8.60;;
4601;SDS011;2313;48.552;9.370;2023-04-06T10:58:28;13.90;;;10.23;;
4601;SDS011;2313;48.552;9.370;2023-04-06T11:00:55;13.77;;;9.27;;
4601;SDS011;2313;48.552;9.370;2023-04-06T11:03:21;14.40;;;10.27;;
4601;SDS011;2313;48.552;9.370;2023-04-06T11:05:48;13.83;;;9.57;;
4601;SDS011;2313;48.552;9.370;2023-04-06T11:11:12;11.80;;;9.40;;
4601;SDS011;2313;48.552;9.370;2023-04-06T11:13:53;12.17;;;9.20;;
4601;SDS011;2313;48.552;9.370;2023-04-06T11:16:20;12.87;;;9.23;;
4601;SDS011;2313;48.552;9.370;2023-04-06T11:19:00;13.47;;;9.23;;
4601;SDS011;2313;48.552;9.370;2023-04-06T11:26:36;12.80;;;8.77;;
4601;SDS011;2313;48.552;9.370;2023-04-06T11:29:10;10.93;;;8.70;;
4601;SDS011;2313;48.552;9.370;2023-04-06T11:31:40;15.70;;;8.93;;
4601;SDS011;2313;48.552;9.370;2023-04-06T11:34:15;10.60;;;8.67;;
4601;SDS011;2313;48.552;9.370;2023-04-06T11:36:46;11.47;;;8.93;;
4601;SDS011;2313;48.552;9.370;2023-04-06T11:39:13;10.47;;;8.60;;
4601;SDS011;2313;48.552;9.370;2023-04-06T11:41:46;10.80;;;9.00;;
4601;SDS011;2313;48.552;9.370;2023-04-06T11:44:13;12.30;;;8.90;;
4601;SDS011;2313;48.552;9.370;2023-04-06T11:46:39;12.03;;;8.73;;
4601;SDS011;2313;48.552;9.370;2023-04-06T11:49:04;10.23;;;7.60;;
4601;SDS011;2313;48.552;9.370;2023-04-06T11:51:30;8.73;;;7.37;;
4601;SDS011;2313;48.552;9.370;2023-04-06T11:54:00;10.10;;;7.67;;
4601;SDS011;2313;48.552;9.370;2023-04-06T11:56:27;11.07;;;8.80;;
4601;SDS011;2313;48.552;9.370;2023-04-06T11:58:54;9.70;;;7.77;;
4601;SDS011;2313;48.552;9.370;2023-04-06T12:01:21;11.57;;;7.40;;
4601;SDS011;2313;48.552;9.370;2023-04-06T12:03:47;8.60;;;7.20;;
4601;SDS011;2313;48.552;9.370;2023-04-06T12:06:14;10.90;;;8.07;;
4601;SDS011;2313;48.552;9.370;2023-04-06T12:08:40;9.17;;;7.97;;
4601;SDS011;2313;48.552;9.370;2023-04-06T12:11:06;10.07;;;7.53;;
4601;SDS011;2313;48.552;9.370;2023-04-06T12:13:32;12.10;;;8.20;;
4601;SDS011;2313;48.552;9.370;2023-04-06T12:15:57;10.00;;;7.57;;
4601;SDS011;2313;48.552;9.370;2023-04-06T12:18:23;15.33;;;9.10;;
4601;SDS011;2313;48.552;9.370;2023-04-06T12:20:49;9.70;;;7.77;;
4601;SDS011;2313;48.552;9.370;2023-04-06T12:23:14;10.53;;;8.00;;
4601;SDS011;2313;48.552;9.370;2023-04-06T12:25:40;10.33;;;8.10;;
4601;SDS011;2313;48.552;9.370;2023-04-06T12:28:07;11.10;;;6.67;;
4601;SDS011;2313;48.552;9.370;2023-04-06T12:30:32;11.83;;;8.63;;
4601;SDS011;2313;48.552;9.370;2023-04-06T12:33:00;11.67;;;8.20;;
4601;SDS011;2313;48.552;9.370;2023-04-06T12:35:26;10.17;;;7.17;;
4601;SDS011;2313;48.552;9.370;2023-04-06T12:37:52;11.53;;;7.23;;
4601;SDS011;2313;48.552;9.370;2023-04-06T12:40:17;8.27;;;7.33;;
4601;SDS011;2313;48.552;9.370;2023-04-06T12:42:43;9.23;;;7.40;;
4601;SDS011;2313;48.552;9.370;2023-04-06T12:45:10;10.37;;;7.40;;
4601;SDS011;2313;48.552;9.370;2023-04-06T12:47:36;11.93;;;8.00;;
4601;SDS011;2313;48.552;9.370;2023-04-06T12:50:03;10.47;;;7.40;;
4601;SDS011;2313;48.552;9.370;2023-04-06T12:52:30;9.97;;;7.70;;
4601;SDS011;2313;48.552;9.370;2023-04-06T12:54:56;14.43;;;7.50;;
4601;SDS011;2313;48.552;9.370;2023-04-06T12:57:24;10.47;;;6.77;;
4601;SDS011;2313;48.552;9.370;2023-04-06T12:59:50;9.57;;;6.10;;
4601;SDS011;2313;48.552;9.370;2023-04-06T13:02:16;8.40;;;6.87;;
4601;SDS011;2313;48.552;9.370;2023-04-06T13:04:42;9.33;;;7.27;;
4601;SDS011;2313;48.552;9.370;2023-04-06T13:07:07;10.80;;;6.70;;
4601;SDS011;2313;48.552;9.370;2023-04-06T13:09:33;8.50;;;6.00;;
4601;SDS011;2313;48.552;9.370;2023-04-06T13:11:59;10.03;;;5.97;;
4601;SDS011;2313;48.552;9.370;2023-04-06T13:14:25;9.83;;;7.20;;
4601;SDS011;2313;48.552;9.370;2023-04-06T13:16:51;9.00;;;5.90;;
4601;SDS011;2313;48.552;9.370;2023-04-06T13:19:17;9.13;;;6.30;;
4601;SDS011;2313;48.552;9.370;2023-04-06T13:21:43;9.30;;;6.90;;
4601;SDS011;2313;48.552;9.370;2023-04-06T13:24:08;9.33;;;6.80;;
4601;SDS011;2313;48.552;9.370;2023-04-06T13:26:35;8.30;;;5.97;;
4601;SDS011;2313;48.552;9.370;2023-04-06T13:29:01;7.60;;;5.70;;
4601;SDS011;2313;48.552;9.370;2023-04-06T13:31:27;7.83;;;5.40;;
4601;SDS011;2313;48.552;9.370;2023-04-06T13:33:53;8.80;;;6.00;;
4601;SDS011;2313;48.552;9.370;2023-04-06T13:36:19;8.70;;;5.63;;
4601;SDS011;2313;48.552;9.370;2023-04-06T13:38:45;9.83;;;5.93;;
4601;SDS011;2313;48.552;9.370;2023-04-06T13:41:21;7.23;;;4.67;;
4601;SDS011;2313;48.552;9.370;2023-04-06T13:43:47;9.80;;;6.07;;
4601;SDS011;2313;48.552;9.370;2023-04-06T13:46:13;6.60;;;4.60;;
4601;SDS011;2313;48.552;9.370;2023-04-06T13:48:40;7.53;;;5.23;;
4601;SDS011;2313;48.552;9.370;2023-04-06T13:53:35;5.63;;;4.23;;
4601;SDS011;2313;48.552;9.370;2023-04-06T13:56:01;7.20;;;5.47;;
4601;SDS011;2313;48.552;9.370;2023-04-06T13:58:26;7.47;;;4.90;;
4601;SDS011;2313;48.552;9.370;2023-04-06T14:00:52;9.13;;;5.00;;
4601;SDS011;2313;48.552;9.370;2023-04-06T14:03:18;6.87;;;4.90;;
4601;SDS011;2313;48.552;9.370;2023-04-06T14:05:46;7.27;;;5.03;;
4601;SDS011;2313;48.552;9.370;2023-04-06T14:08:12;6.40;;;4.90;;
4601;SDS011;2313;48.552;9.370;2023-04-06T14:10:41;5.40;;;4.37;;
4601;SDS011;2313;48.552;9.370;2023-04-06T14:13:09;7.23;;;5.10;;
4601;SDS011;2313;48.552;9.370;2023-04-06T14:15:35;8.60;;;5.67;;
4601;SDS011;2313;48.552;9.370;2023-04-06T14:18:01;12.23;;;5.27;;
4601;SDS011;2313;48.552;9.370;2023-04-06T14:20:27;6.50;;;5.30;;
4601;SDS011;2313;48.552;9.370;2023-04-06T14:22:52;7.07;;;5.20;;
4601;SDS011;2313;48.552;9.370;2023-04-06T14:25:19;5.80;;;4.60;;
4601;SDS011;2313;48.552;9.370;2023-04-06T14:27:45;6.90;;;5.23;;
4601;SDS011;2313;48.552;9.370;2023-04-06T14:30:11;7.50;;;4.33;;
4601;SDS011;2313;48.552;9.370;2023-04-06T14:32:37;4.43;;;3.67;;
4601;SDS011;2313;48.552;9.370;2023-04-06T14:35:03;5.33;;;4.10;;
4601;SDS011;2313;48.552;9.370;2023-04-06T14:37:29;4.43;;;3.87;;
4601;SDS011;2313;48.552;9.370;2023-04-06T14:39:55;4.40;;;3.90;;
4601;SDS011;2313;48.552;9.370;2023-04-06T14:42:20;6.03;;;4.17;;
4601;SDS011;2313;48.552;9.370;2023-04-06T14:44:46;5.03;;;3.80;;
4601;SDS011;2313;48.552;9.370;2023-04-06T14:47:13;5.87;;;4.17;;
4601;SDS011;2313;48.552;9.370;2023-04-06T14:49:44;4.87;;;3.60;;
4601;SDS011;2313;48.552;9.370;2023-04-06T14:52:11;8.47;;;3.83;;
4601;SDS011;2313;48.552;9.370;2023-04-06T14:54:36;4.77;;;3.90;;
4601;SDS011;2313;48.552;9.370;2023-04-06T14:57:02;4.03;;;3.60;;
4601;SDS011;2313;48.552;9.370;2023-04-06T14:59:28;4.33;;;3.57;;
4601;SDS011;2313;48.552;9.370;2023-04-06T15:01:53;4.13;;;3.40;;
4601;SDS011;2313;48.552;9.370;2023-04-06T15:04:19;6.80;;;4.47;;
4601;SDS011;2313;48.552;9.370;2023-04-06T15:06:45;6.00;;;3.30;;
4601;SDS011;2313;48.552;9.370;2023-04-06T15:09:10;6.70;;;3.83;;
4601;SDS011;2313;48.552;9.370;2023-04-06T15:11:36;4.23;;;3.70;;
4601;SDS011;2313;48.552;9.370;2023-04-06T15:14:02;4.20;;;3.63;;
4601;SDS011;2313;48.552;9.370;2023-04-06T15:16:28;6.83;;;4.30;;
4601;SDS011;2313;48.552;9.370;2023-04-06T15:18:57;5.30;;;3.90;;
4601;SDS011;2313;48.552;9.370;2023-04-06T15:21:24;7.57;;;3.80;;
4601;SDS011;2313;48.552;9.370;2023-04-06T15:23:50;6.33;;;3.77;;
4601;SDS011;2313;48.552;9.370;2023-04-06T15:26:16;6.40;;;3.67;;